Time;durP1;ratioP1;P1;durP2;ratioP2;P2;SDS_P1;SDS_P2;PMS_P1;PMS_P2;Temp;Humidity;BMP_temperature;BMP_pressure;BME280_temperature;BME280_humidity;BME280_pressure;Samples;Min_cycle;Max_cycle;Signal;HPM_P1;HPM_P2
2023/03/31 00:01:23;;;;;;;;;;;;;;;3.83;80.98;93412.06;5051483;28;20309;-38
2023/03/31 00:03:48;;;;;;;;;;;;;;;3.80;82.30;93402.16;5051566;28;20015;-38
2023/03/31 00:06:18;;;;;;;;;;;;;;;3.67;82.75;93402.72;5050872;28;20208;-38
2023/03/31 00:08:44;;;;;;;;;;;;;;;3.39;84.11;93407.59;5051841;28;19924;-38
2023/03/31 00:11:10;;;;;;;;;;;;;;;3.33;84.49;93404.16;5032883;28;19917;-38
2023/03/31 00:13:35;;;;;;;;;;;;;;;3.29;84.88;93406.38;5031561;28;20467;-38
2023/03/31 00:16:02;;;;;;;;;;;;;;;3.24;85.36;93401.69;5031767;28;19913;-38
2023/03/31 00:18:28;;;;;;;;;;;;;;;3.28;85.26;93402.19;5031520;28;19913;-38
2023/03/31 00:20:56;;;;;;;;;;;;;;;3.19;84.65;93396.25;5031334;28;19931;-38
2023/03/31 00:23:26;;;;;;;;;;;;;;;3.10;85.13;93394.56;5031110;28;19971;-38
2023/03/31 00:25:52;;;;;;;;;;;;;;;3.06;84.64;93396.81;5031945;28;20328;-38
2023/03/31 00:28:17;;;;;;;;;;;;;;;3.03;85.57;93395.81;5031579;28;19917;-38
2023/03/31 00:30:42;;;;;;;;;;;;;;;3.10;84.26;93388.38;5031015;28;19913;-38
2023/03/31 00:33:08;;;;;;;;;;;;;;;2.82;85.24;93389.19;5032203;28;19939;-38
2023/03/31 00:35:34;;;;;;;;;;;;;;;2.78;85.06;93388.72;5051324;28;19916;-38
2023/03/31 00:37:59;;;;;;;;;;;;;;;2.80;84.99;93380.78;5051288;28;19913;-38
2023/03/31 00:40:25;;;;;;;;;;;;;;;2.81;84.78;93385.00;5051151;28;19912;-38
2023/03/31 00:42:50;;;;;;;;;;;;;;;2.80;85.50;93380.78;5051252;28;20332;-38
2023/03/31 00:45:15;;;;;;;;;;;;;;;2.71;85.29;93383.03;5038501;28;19925;-38
2023/03/31 00:47:54;;;;;;;;;;;;;;;2.68;85.79;93379.34;5031152;28;19920;-38
2023/03/31 00:50:21;;;;;;;;;;;;;;;2.56;85.70;93382.56;5030254;28;20332;-38
2023/03/31 00:52:47;;;;;;;;;;;;;;;2.49;85.85;93383.09;5046162;28;20415;-38
2023/03/31 00:55:16;;;;;;;;;;;;;;;2.36;86.94;93382.84;5034898;28;19916;-38
2023/03/31 00:57:41;;;;;;;;;;;;;;;2.46;87.12;93378.63;5050880;28;19935;-38
2023/03/31 01:00:14;;;;;;;;;;;;;;;2.57;86.56;93373.91;5050366;28;20401;-38
2023/03/31 01:02:40;;;;;;;;;;;;;;;2.60;86.15;93370.16;5050454;28;19917;-38
2023/03/31 01:05:07;;;;;;;;;;;;;;;2.66;86.03;93373.63;5066005;28;19917;-38
2023/03/31 01:07:37;;;;;;;;;;;;;;;2.77;85.87;93372.88;5050734;28;19917;-38
2023/03/31 01:10:03;;;;;;;;;;;;;;;2.85;87.34;93360.94;5041087;28;19914;-38
2023/03/31 01:12:29;;;;;;;;;;;;;;;3.00;85.59;93360.63;5030692;28;19920;-38
2023/03/31 01:14:54;;;;;;;;;;;;;;;3.07;85.03;93365.56;5045741;28;20000;-38
2023/03/31 01:17:20;;;;;;;;;;;;;;;3.02;84.76;93361.63;5045919;28;19944;-38
2023/03/31 01:19:45;;;;;;;;;;;;;;;3.07;83.67;93360.13;5045510;28;19913;-38
2023/03/31 01:22:10;;;;;;;;;;;;;;;3.09;84.16;93360.34;5030248;28;19917;-38
2023/03/31 01:24:46;;;;;;;;;;;;;;;3.24;83.08;93363.50;5030462;28;20025;-38
2023/03/31 01:27:20;;;;;;;;;;;;;;;3.17;84.58;93364.03;5030225;28;20300;-38
2023/03/31 01:29:46;;;;;;;;;;;;;;;3.21;85.07;93361.03;5030080;28;19913;-38
2023/03/31 01:32:17;;;;;;;;;;;;;;;3.37;83.34;93362.94;5029887;28;19920;-38
2023/03/31 01:34:45;;;;;;;;;;;;;;;3.22;83.78;93370.72;5043963;28;19913;-38
2023/03/31 01:37:29;;;;;;;;;;;;;;;3.27;85.03;93365.22;5049864;28;19913;-38
2023/03/31 01:40:14;;;;;;;;;;;;;;;3.43;83.28;93358.19;5049800;28;19913;-38
2023/03/31 01:42:52;;;;;;;;;;;;;;;3.40;83.01;93365.38;5050091;28;20027;-39
2023/03/31 01:45:19;;;;;;;;;;;;;;;3.49;84.32;93356.16;5036947;28;19917;-38
2023/03/31 01:47:46;;;;;;;;;;;;;;;3.49;82.97;93353.44;5045272;28;19913;-38
2023/03/31 01:50:23;;;;;;;;;;;;;;;3.33;85.08;93363.22;5044921;28;19967;-38
2023/03/31 01:52:52;;;;;;;;;;;;;;;3.47;84.29;93350.47;5045409;28;19936;-38
2023/03/31 01:55:26;;;;;;;;;;;;;;;3.40;85.16;93365.38;5049584;28;19912;-39
2023/03/31 01:58:12;;;;;;;;;;;;;;;3.26;86.72;93365.72;5049868;28;20359;-38
2023/03/31 02:00:38;;;;;;;;;;;;;;;3.41;86.94;93363.41;5049020;28;19921;-38
2023/03/31 02:03:15;;;;;;;;;;;;;;;3.42;86.46;93364.91;5064991;28;19917;-38
2023/03/31 02:05:42;;;;;;;;;;;;;;;3.46;86.42;93374.31;5065055;28;19917;-39
2023/03/31 02:08:19;;;;;;;;;;;;;;;3.55;87.06;93371.25;5064760;28;19913;-38
2023/03/31 02:10:45;;;;;;;;;;;;;;;3.57;87.19;93365.31;5049856;28;20336;-38
2023/03/31 02:13:10;;;;;;;;;;;;;;;3.50;87.37;93371.31;5044932;28;19919;-38
2023/03/31 02:15:37;;;;;;;;;;;;;;;3.45;88.50;93372.06;5044731;28;20618;-38
2023/03/31 02:18:09;;;;;;;;;;;;;;;3.59;89.15;93376.47;5044776;28;19923;-38
2023/03/31 02:20:35;;;;;;;;;;;;;;;3.63;88.84;93388.59;5029640;28;19921;-38
2023/03/31 02:23:00;;;;;;;;;;;;;;;3.81;88.30;93387.25;5044793;28;19986;-38
2023/03/31 02:25:31;;;;;;;;;;;;;;;3.60;90.04;93380.66;5029104;28;19956;-38
2023/03/31 02:28:01;;;;;;;;;;;;;;;3.64;93.23;93405.72;5044749;28;20000;-38
2023/03/31 02:30:28;;;;;;;;;;;;;;;3.75;93.78;93411.09;5029194;28;20565;-38
2023/03/31 02:32:53;;;;;;;;;;;;;;;3.89;92.58;93395.63;5028751;28;19924;-38
2023/03/31 02:35:19;;;;;;;;;;;;;;;3.72;93.36;93396.50;5048159;28;19912;-38
2023/03/31 02:37:45;;;;;;;;;;;;;;;3.65;95.76;93394.31;5064421;28;19971;-38
2023/03/31 02:40:11;;;;;;;;;;;;;;;3.63;97.34;93401.50;5049114;28;19919;-38
2023/03/31 02:42:37;;;;;;;;;;;;;;;3.68;98.63;93392.56;5048960;28;19913;-38
2023/03/31 02:45:03;;;;;;;;;;;;;;;3.70;99.51;93406.44;5038002;28;19924;-38
2023/03/31 02:47:28;;;;;;;;;;;;;;;3.80;98.33;93400.16;5028867;28;19917;-38
2023/03/31 02:49:55;;;;;;;;;;;;;;;3.72;98.78;93409.41;5044545;28;19966;-38
2023/03/31 02:52:29;;;;;;;;;;;;;;;3.94;98.21;93409.28;5044529;28;20309;-38
2023/03/31 02:55:00;;;;;;;;;;;;;;;4.06;97.47;93404.47;5030292;28;20424;-38
2023/03/31 02:57:34;;;;;;;;;;;;;;;3.87;97.73;93407.06;5048725;28;19913;-39
2023/03/31 03:00:09;;;;;;;;;;;;;;;3.74;99.99;93399.47;5048579;28;19921;-39
2023/03/31 03:02:34;;;;;;;;;;;;;;;3.80;100.00;93397.44;5049058;28;19924;-38
2023/03/31 03:05:00;;;;;;;;;;;;;;;3.77;100.00;93395.72;5048977;28;19917;-38
2023/03/31 03:07:44;;;;;;;;;;;;;;;3.90;100.00;93403.31;5048898;28;20396;-38
2023/03/31 03:10:30;;;;;;;;;;;;;;;3.93;100.00;93396.09;5038403;28;19917;-39
2023/03/31 03:13:15;;;;;;;;;;;;;;;3.82;100.00;93419.50;5009170;28;19992;-39
2023/03/31 03:15:45;;;;;;;;;;;;;;;3.93;100.00;93407.78;5031496;28;19947;-38
2023/03/31 03:18:10;;;;;;;;;;;;;;;3.85;100.00;93407.56;5044474;28;19914;-39
2023/03/31 03:20:35;;;;;;;;;;;;;;;3.79;100.00;93406.13;5044926;28;19921;-39
2023/03/31 03:23:01;;;;;;;;;;;;;;;3.78;100.00;93405.41;5012707;28;19953;-39
2023/03/31 03:25:29;;;;;;;;;;;;;;;3.84;100.00;93408.81;5012853;28;19921;-39
2023/03/31 03:27:54;;;;;;;;;;;;;;;3.81;100.00;93404.38;5023402;28;19921;-39
2023/03/31 03:30:19;;;;;;;;;;;;;;;3.83;100.00;93401.16;5032548;28;19913;-39
2023/03/31 03:32:45;;;;;;;;;;;;;;;3.86;100.00;93402.84;5031915;28;20522;-39
2023/03/31 03:35:10;;;;;;;;;;;;;;;4.08;100.00;93389.03;5032084;28;19913;-39
2023/03/31 03:37:35;;;;;;;;;;;;;;;3.93;100.00;93375.00;5032457;28;19913;-39
2023/03/31 03:40:01;;;;;;;;;;;;;;;3.96;100.00;93381.44;5048050;28;19913;-39
2023/03/31 03:42:26;;;;;;;;;;;;;;;3.85;100.00;93393.19;5052269;28;20289;-39
2023/03/31 03:44:51;;;;;;;;;;;;;;;3.82;100.00;93380.53;5042917;28;19917;-39
2023/03/31 03:47:16;;;;;;;;;;;;;;;3.72;100.00;93393.78;5032198;28;19913;-39
2023/03/31 03:49:42;;;;;;;;;;;;;;;3.71;100.00;93388.78;5031788;28;20408;-38
2023/03/31 03:52:07;;;;;;;;;;;;;;;3.74;100.00;93379.59;5032201;28;19913;-39
2023/03/31 03:54:32;;;;;;;;;;;;;;;3.92;100.00;93370.06;5032196;28;19975;-38
2023/03/31 03:56:57;;;;;;;;;;;;;;;3.80;100.00;93372.84;5050117;28;20361;-39
2023/03/31 03:59:23;;;;;;;;;;;;;;;3.80;100.00;93372.84;5051797;28;19927;-39
2023/03/31 04:01:48;;;;;;;;;;;;;;;3.66;100.00;93365.03;5051641;28;20384;-39
2023/03/31 04:04:13;;;;;;;;;;;;;;;3.58;100.00;93364.81;5051464;28;19979;-39
2023/03/31 04:06:39;;;;;;;;;;;;;;;3.72;100.00;93365.72;5051027;28;19912;-39
2023/03/31 04:09:04;;;;;;;;;;;;;;;3.70;100.00;93363.47;5031484;28;19948;-39
2023/03/31 04:11:29;;;;;;;;;;;;;;;3.78;100.00;93350.78;5031858;28;19955;-39
2023/03/31 04:13:55;;;;;;;;;;;;;;;3.84;100.00;93353.47;5031844;28;19913;-39
2023/03/31 04:16:21;;;;;;;;;;;;;;;3.93;100.00;93349.66;5031499;28;19913;-38
2023/03/31 04:18:47;;;;;;;;;;;;;;;3.90;100.00;93335.03;5031751;28;19913;-38
2023/03/31 04:21:21;;;;;;;;;;;;;;;4.07;100.00;93335.63;5031590;28;19916;-39
2023/03/31 04:23:47;;;;;;;;;;;;;;;3.97;100.00;93331.75;5030975;28;20023;-39
2023/03/31 04:26:12;;;;;;;;;;;;;;;3.77;100.00;93340.34;5030480;28;20077;-39
2023/03/31 04:28:41;;;;;;;;;;;;;;;3.76;100.00;93347.06;5046708;28;19960;-39
2023/03/31 04:31:14;;;;;;;;;;;;;;;3.82;100.00;93340.31;5030818;28;20389;-39
2023/03/31 04:33:39;;;;;;;;;;;;;;;3.88;100.00;93334.81;5031455;28;19919;-39
2023/03/31 04:36:16;;;;;;;;;;;;;;;3.96;100.00;93338.50;5031657;28;19921;-39
2023/03/31 04:38:45;;;;;;;;;;;;;;;4.02;100.00;93336.44;5035830;28;20313;-39
2023/03/31 04:41:10;;;;;;;;;;;;;;;4.17;100.00;93338.81;5050796;28;20444;-39
2023/03/31 04:43:36;;;;;;;;;;;;;;;4.17;100.00;93339.56;5050816;28;20007;-39
2023/03/31 04:46:01;;;;;;;;;;;;;;;4.14;100.00;93334.34;5031982;28;19920;-38
2023/03/31 04:48:26;;;;;;;;;;;;;;;4.18;100.00;93348.50;5031111;28;19920;-39
2023/03/31 04:50:52;;;;;;;;;;;;;;;4.16;100.00;93335.31;5030699;28;20376;-39
2023/03/31 04:53:17;;;;;;;;;;;;;;;4.20;100.00;93332.31;5030610;28;19959;-39
2023/03/31 04:55:42;;;;;;;;;;;;;;;4.21;100.00;93329.06;5038696;28;19913;-39
2023/03/31 04:58:08;;;;;;;;;;;;;;;4.27;100.00;93329.00;5050893;28;19913;-39
2023/03/31 05:00:33;;;;;;;;;;;;;;;4.27;100.00;93329.75;5050311;28;19933;-39
2023/03/31 05:02:59;;;;;;;;;;;;;;;4.37;100.00;93328.19;5049205;28;19916;-39
2023/03/31 05:05:24;;;;;;;;;;;;;;;4.38;100.00;93329.66;5030318;28;19921;-39
2023/03/31 05:07:50;;;;;;;;;;;;;;;4.37;100.00;93325.47;5030775;28;19925;-39
2023/03/31 05:10:15;;;;;;;;;;;;;;;4.44;100.00;93327.59;5030353;28;20505;-39
2023/03/31 05:12:40;;;;;;;;;;;;;;;4.48;100.00;93325.31;5030424;28;19948;-39
2023/03/31 05:15:06;;;;;;;;;;;;;;;4.56;100.00;93336.44;5030210;28;19929;-39
2023/03/31 05:17:32;;;;;;;;;;;;;;;4.61;100.00;93330.19;5030498;28;19914;-39
2023/03/31 05:19:58;;;;;;;;;;;;;;;4.69;100.00;93327.63;5030206;28;20432;-39
2023/03/31 05:22:24;;;;;;;;;;;;;;;4.76;100.00;93327.78;5030184;28;19921;-39
2023/03/31 05:24:49;;;;;;;;;;;;;;;4.78;100.00;93319.06;5030116;28;19917;-39
2023/03/31 05:27:15;;;;;;;;;;;;;;;4.96;100.00;93301.97;5030234;28;19917;-39
2023/03/31 05:29:40;;;;;;;;;;;;;;;4.87;100.00;93297.59;5030001;28;19917;-39
2023/03/31 05:32:05;;;;;;;;;;;;;;;4.79;100.00;93317.78;5029745;28;20011;-39
2023/03/31 05:34:31;;;;;;;;;;;;;;;4.78;100.00;93321.81;5042230;28;19913;-39
2023/03/31 05:36:56;;;;;;;;;;;;;;;4.76;100.00;93302.44;5065390;28;19913;-38
2023/03/31 05:39:21;;;;;;;;;;;;;;;4.67;100.00;93308.25;5049593;28;19917;-39
2023/03/31 05:41:47;;;;;;;;;;;;;;;4.86;100.00;93293.34;5049848;28;19963;-39
2023/03/31 05:44:12;;;;;;;;;;;;;;;4.77;100.00;93293.72;5045953;28;19967;-39
2023/03/31 05:46:37;;;;;;;;;;;;;;;4.84;100.00;93292.38;5030005;28;19952;-39
2023/03/31 05:49:03;;;;;;;;;;;;;;;5.06;100.00;93294.84;5029845;28;20777;-39
2023/03/31 05:51:28;;;;;;;;;;;;;;;4.94;100.00;93296.22;5029588;28;19967;-39
2023/03/31 05:53:53;;;;;;;;;;;;;;;5.12;100.00;93293.53;5029893;28;19925;-39
2023/03/31 05:56:19;;;;;;;;;;;;;;;5.21;100.00;93284.97;5042503;28;19913;-39
2023/03/31 05:58:44;;;;;;;;;;;;;;;5.26;100.00;93292.34;5049395;28;20000;-39
2023/03/31 06:01:10;;;;;;;;;;;;;;;5.38;100.00;93295.66;5031735;28;19932;-39
2023/03/31 06:03:37;;;;;;;;;;;;;;;5.44;100.00;93301.06;5029628;28;19924;-39
2023/03/31 06:06:04;;;;;;;;;;;;;;;5.53;100.00;93298.69;5029688;28;19921;-39
2023/03/31 06:08:29;;;;;;;;;;;;;;;5.76;100.00;93296.38;5029767;28;20359;-39
2023/03/31 06:10:55;;;;;;;;;;;;;;;5.86;100.00;93298.22;5029528;28;19975;-39
2023/03/31 06:13:20;;;;;;;;;;;;;;;5.97;100.00;93292.59;5029589;28;20377;-39
2023/03/31 06:16:04;;;;;;;;;;;;;;;6.23;100.00;93294.66;5029193;28;20011;-39
2023/03/31 06:18:29;;;;;;;;;;;;;;;6.18;100.00;93298.22;5029304;28;19917;-39
2023/03/31 06:20:55;;;;;;;;;;;;;;;6.21;100.00;93293.69;5029435;28;19994;-39
2023/03/31 06:23:21;;;;;;;;;;;;;;;6.24;100.00;93296.09;5029439;28;20398;-39
2023/03/31 06:25:46;;;;;;;;;;;;;;;6.31;100.00;93294.75;5029076;28;20500;-39
2023/03/31 06:28:11;;;;;;;;;;;;;;;6.45;100.00;93301.75;5029311;28;19913;-39
2023/03/31 06:30:37;;;;;;;;;;;;;;;6.49;100.00;93302.91;5029352;28;20491;-39
2023/03/31 06:33:02;;;;;;;;;;;;;;;6.53;100.00;93299.84;5028804;28;19913;-39
2023/03/31 06:35:27;;;;;;;;;;;;;;;6.62;100.00;93299.44;5048950;28;19956;-39
2023/03/31 06:37:52;;;;;;;;;;;;;;;6.59;99.92;93292.25;5049171;28;19913;-39
2023/03/31 06:40:18;;;;;;;;;;;;;;;6.99;99.17;93293.75;5049037;28;19948;-39
2023/03/31 06:42:43;;;;;;;;;;;;;;;7.19;98.04;93290.31;5049185;28;20444;-39
2023/03/31 06:45:09;;;;;;;;;;;;;;;7.53;96.23;93296.59;5037079;28;20005;-39
2023/03/31 06:47:36;;;;;;;;;;;;;;;7.68;95.39;93307.00;5029149;28;20015;-39
2023/03/31 06:50:01;;;;;;;;;;;;;;;7.74;94.04;93293.88;5032732;28;19917;-39
2023/03/31 06:52:27;;;;;;;;;;;;;;;7.82;92.62;93289.19;5033212;28;19919;-39
2023/03/31 06:54:52;;;;;;;;;;;;;;;8.08;91.80;93293.84;5033849;28;20003;-39
2023/03/31 06:57:17;;;;;;;;;;;;;;;7.98;92.03;93292.84;5036175;28;19921;-39
2023/03/31 06:59:42;;;;;;;;;;;;;;;7.89;94.18;93288.53;5032833;28;20021;-40
2023/03/31 07:02:08;;;;;;;;;;;;;;;7.93;95.26;93288.19;5032738;28;19913;-39
2023/03/31 07:04:34;;;;;;;;;;;;;;;8.14;94.57;93283.47;5047891;28;19971;-39
2023/03/31 07:06:59;;;;;;;;;;;;;;;8.25;96.01;93274.94;5033012;28;19914;-39
2023/03/31 07:09:24;;;;;;;;;;;;;;;8.67;94.20;93276.38;5032831;28;20054;-39
2023/03/31 07:11:50;;;;;;;;;;;;;;;8.94;93.21;93274.88;5032895;28;19999;-39
2023/03/31 07:14:15;;;;;;;;;;;;;;;9.40;89.87;93270.31;5032499;28;19917;-39
2023/03/31 07:16:40;;;;;;;;;;;;;;;10.92;84.05;93279.53;5032712;28;19917;-39
2023/03/31 07:19:06;;;;;;;;;;;;;;;13.22;69.77;93264.72;5032370;28;19928;-39
2023/03/31 07:21:32;;;;;;;;;;;;;;;14.72;59.68;93249.41;5032480;28;19919;-39
2023/03/31 07:24:00;;;;;;;;;;;;;;;14.97;56.32;93247.84;5032242;28;20068;-39
2023/03/31 07:26:26;;;;;;;;;;;;;;;15.05;58.05;93244.97;5032150;28;19913;-40
2023/03/31 07:28:51;;;;;;;;;;;;;;;14.54;53.98;93237.66;5032423;28;19917;-39
2023/03/31 07:31:17;;;;;;;;;;;;;;;13.91;57.19;93236.88;5032159;28;19913;-39
2023/03/31 07:33:43;;;;;;;;;;;;;;;14.66;57.61;93235.78;5037689;28;20406;-39
2023/03/31 07:36:08;;;;;;;;;;;;;;;16.19;54.98;93237.88;5052269;28;19912;-39
2023/03/31 07:38:33;;;;;;;;;;;;;;;16.20;51.60;93226.13;5051871;28;19959;-39
2023/03/31 07:40:59;;;;;;;;;;;;;;;18.27;47.33;93227.28;5051860;28;19966;-39
2023/03/31 07:43:24;;;;;;;;;;;;;;;19.20;43.55;93228.03;5051724;28;19947;-40
2023/03/31 07:45:49;;;;;;;;;;;;;;;19.96;40.96;93234.53;5034546;28;19921;-40
2023/03/31 07:48:15;;;;;;;;;;;;;;;21.13;39.57;93239.56;5032182;28;19916;-40
2023/03/31 07:50:40;;;;;;;;;;;;;;;20.81;37.83;93246.22;5031900;28;19913;-40
2023/03/31 07:53:06;;;;;;;;;;;;;;;20.15;38.66;93234.19;5031785;28;19921;-39
2023/03/31 07:55:31;;;;;;;;;;;;;;;20.00;40.56;93243.16;5031761;28;19928;-40
2023/03/31 07:57:56;;;;;;;;;;;;;;;20.46;37.86;93242.97;5031737;28;19940;-39
2023/03/31 08:00:22;;;;;;;;;;;;;;;20.76;38.98;93247.38;5031359;28;19928;-40
2023/03/31 08:02:47;;;;;;;;;;;;;;;19.41;38.43;93247.50;5031603;28;19968;-39
2023/03/31 08:05:13;;;;;;;;;;;;;;;19.23;38.80;93255.53;5031608;28;19932;-39
2023/03/31 08:07:40;;;;;;;;;;;;;;;19.78;39.02;93250.31;5031798;28;20383;-39
2023/03/31 08:10:07;;;;;;;;;;;;;;;19.64;37.24;93236.97;5031607;28;19971;-39
2023/03/31 08:12:32;;;;;;;;;;;;;;;20.15;38.50;93242.59;5031338;28;19917;-39
2023/03/31 08:14:57;;;;;;;;;;;;;;;20.40;37.33;93248.94;5031650;28;19913;-39
2023/03/31 08:17:22;;;;;;;;;;;;;;;21.11;36.19;93239.44;5031199;28;20428;-40
2023/03/31 08:19:49;;;;;;;;;;;;;;;22.93;33.70;93234.22;5031506;28;19913;-39
2023/03/31 08:22:14;;;;;;;;;;;;;;;23.28;33.21;93229.47;5031130;28;19917;-40
2023/03/31 08:24:39;;;;;;;;;;;;;;;24.31;31.62;93227.44;5031184;28;19917;-40
2023/03/31 08:27:04;;;;;;;;;;;;;;;24.19;29.92;93216.38;5031203;28;19929;-38
2023/03/31 08:29:30;;;;;;;;;;;;;;;21.79;34.08;93235.81;5031029;28;20468;-40
2023/03/31 08:31:55;;;;;;;;;;;;;;;19.93;36.32;93214.06;5030558;28;19913;-40
2023/03/31 08:34:20;;;;;;;;;;;;;;;18.49;37.91;93220.28;5041818;28;19913;-40
2023/03/31 08:36:46;;;;;;;;;;;;;;;19.30;37.98;93220.22;5051160;28;19932;-39
2023/03/31 08:39:11;;;;;;;;;;;;;;;20.37;37.08;93218.63;5050967;28;20605;-39
2023/03/31 08:41:52;;;;;;;;;;;;;;;21.05;35.63;93213.84;5051072;28;20385;-40
2023/03/31 08:44:36;;;;;;;;;;;;;;;23.72;31.83;93210.94;5045979;28;19917;-40
2023/03/31 08:47:02;;;;;;;;;;;;;;;24.70;29.73;93194.41;5030699;28;19913;-40
2023/03/31 08:49:28;;;;;;;;;;;;;;;25.30;28.49;93207.22;5030817;28;20071;-40
2023/03/31 08:52:03;;;;;;;;;;;;;;;24.17;29.11;93190.22;5046318;28;20021;-40
2023/03/31 08:54:32;;;;;;;;;;;;;;;24.51;29.61;93189.47;5046383;28;19914;-40
2023/03/31 08:56:58;;;;;;;;;;;;;;;24.73;30.17;93189.56;5049037;28;20458;-40
2023/03/31 08:59:30;;;;;;;;;;;;;;;25.04;29.16;93189.31;5065812;28;19975;-40
2023/03/31 09:01:59;;;;;;;;;;;;;;;25.07;28.17;93178.84;5050230;28;19927;-40
2023/03/31 09:04:31;;;;;;;;;;;;;;;25.15;28.01;93176.28;5050546;28;19927;-40
2023/03/31 09:07:11;;;;;;;;;;;;;;;25.35;27.61;93157.97;5050614;28;19913;-40
2023/03/31 09:09:49;;;;;;;;;;;;;;;25.94;26.26;93159.94;5044923;28;19913;-40
2023/03/31 09:12:15;;;;;;;;;;;;;;;24.91;27.22;93166.94;5029672;28;19924;-40
2023/03/31 09:15:03;;;;;;;;;;;;;;;25.33;28.26;93169.19;5030529;28;19936;-39
2023/03/31 09:17:30;;;;;;;;;;;;;;;24.80;28.67;93157.38;5030090;28;20008;-40
2023/03/31 09:19:55;;;;;;;;;;;;;;;25.47;26.09;93164.03;5045748;28;20008;-40
2023/03/31 09:22:21;;;;;;;;;;;;;;;25.36;27.11;93155.88;5030339;28;19996;-40
2023/03/31 09:24:58;;;;;;;;;;;;;;;25.27;27.18;93149.22;5030291;28;19917;-40
2023/03/31 09:27:23;;;;;;;;;;;;;;;25.45;25.88;93138.53;5030084;28;19924;-40
2023/03/31 09:29:50;;;;;;;;;;;;;;;25.50;27.37;93148.63;5045641;28;19913;-40
2023/03/31 09:32:17;;;;;;;;;;;;;;;25.92;24.90;93132.31;5045159;28;19992;-40
2023/03/31 09:34:43;;;;;;;;;;;;;;;25.30;26.26;93150.72;5044033;28;19952;-40
2023/03/31 09:37:09;;;;;;;;;;;;;;;25.89;25.52;93144.94;5049981;28;20324;-40
2023/03/31 09:39:35;;;;;;;;;;;;;;;24.75;28.42;93144.50;5065363;28;19931;-40
2023/03/31 09:42:00;;;;;;;;;;;;;;;24.81;27.44;93145.44;5050003;28;20374;-40
2023/03/31 09:44:26;;;;;;;;;;;;;;;25.45;26.31;93146.28;5044112;28;19991;-40
2023/03/31 09:46:52;;;;;;;;;;;;;;;24.44;28.06;93134.16;5029968;28;19948;-40
2023/03/31 09:49:18;;;;;;;;;;;;;;;24.79;26.19;93124.88;5029446;28;20412;-40
2023/03/31 09:51:44;;;;;;;;;;;;;;;24.41;26.73;93132.59;5044989;28;19928;-40
2023/03/31 09:54:15;;;;;;;;;;;;;;;22.85;28.30;93127.59;5029680;28;19913;-39
2023/03/31 09:56:40;;;;;;;;;;;;;;;22.63;30.31;93130.16;5045159;28;19920;-39
2023/03/31 09:59:11;;;;;;;;;;;;;;;23.68;29.92;93117.75;5029714;28;19913;-39
2023/03/31 10:01:36;;;;;;;;;;;;;;;25.16;26.32;93121.97;5044577;28;19928;-40
2023/03/31 10:04:04;;;;;;;;;;;;;;;25.09;27.57;93111.84;5029694;28;20380;-40
2023/03/31 10:06:29;;;;;;;;;;;;;;;24.88;25.97;93120.97;5044566;28;19914;-40
2023/03/31 10:09:01;;;;;;;;;;;;;;;24.95;26.91;93128.28;5044700;28;19927;-40
2023/03/31 10:11:26;;;;;;;;;;;;;;;25.41;27.31;93117.84;5041548;28;19926;-40
2023/03/31 10:14:12;;;;;;;;;;;;;;;25.66;27.39;93111.69;5009388;28;20490;-39
2023/03/31 10:16:52;;;;;;;;;;;;;;;25.05;27.58;93106.03;5009434;28;20531;-40
2023/03/31 10:19:19;;;;;;;;;;;;;;;25.89;25.60;93101.78;5009574;28;19913;-40
2023/03/31 10:21:45;;;;;;;;;;;;;;;26.72;24.16;93102.22;5040984;28;20611;-40
2023/03/31 10:24:11;;;;;;;;;;;;;;;26.09;24.57;93096.81;5008985;28;19999;-40
2023/03/31 10:26:36;;;;;;;;;;;;;;;25.08;25.54;93093.41;5009290;28;19913;-40
2023/03/31 10:29:01;;;;;;;;;;;;;;;24.25;27.62;93091.78;5024461;28;20020;-40
2023/03/31 10:31:33;;;;;;;;;;;;;;;24.38;27.10;93090.88;5046773;28;19921;-39
2023/03/31 10:33:59;;;;;;;;;;;;;;;24.74;26.81;93092.94;5028894;28;19920;-39
2023/03/31 10:36:25;;;;;;;;;;;;;;;24.69;27.56;93093.41;5044300;28;19913;-40
2023/03/31 10:38:51;;;;;;;;;;;;;;;25.15;27.95;93089.44;5029062;28;19952;-39
2023/03/31 10:41:20;;;;;;;;;;;;;;;24.85;26.10;93091.19;5044433;28;19952;-39
2023/03/31 10:43:58;;;;;;;;;;;;;;;25.65;26.65;93073.47;5028623;28;19917;-39
2023/03/31 10:46:45;;;;;;;;;;;;;;;24.91;25.96;93087.84;5044056;28;20500;-39
2023/03/31 10:58:27;;;;;;;;;;;;;;;26.64;24.87;93060.22;5048493;28;20058;-40
2023/03/31 11:00:59;;;;;;;;;;;;;;;26.87;23.94;93065.16;5064815;28;19928;-40
2023/03/31 11:03:34;;;;;;;;;;;;;;;26.64;24.70;93068.00;5064840;28;19920;-40
2023/03/31 11:06:04;;;;;;;;;;;;;;;26.09;25.18;93065.69;5049833;28;19949;-40
2023/03/31 11:08:36;;;;;;;;;;;;;;;25.95;26.57;93057.44;5065192;28;20392;-39
2023/03/31 11:11:01;;;;;;;;;;;;;;;24.72;27.65;93058.97;5032437;28;19919;-39
2023/03/31 11:13:47;;;;;;;;;;;;;;;23.28;28.23;93059.72;5029640;28;20375;-39
2023/03/31 11:16:12;;;;;;;;;;;;;;;21.79;30.74;93062.31;5045175;28;20009;-39
2023/03/31 11:18:44;;;;;;;;;;;;;;;21.31;31.17;93056.50;5028208;28;20012;-39
2023/03/31 11:21:12;;;;;;;;;;;;;;;20.86;31.28;93062.69;5029381;28;19913;-39
2023/03/31 11:23:41;;;;;;;;;;;;;;;20.05;33.47;93048.69;5044662;28;20373;-39
2023/03/31 11:26:10;;;;;;;;;;;;;;;20.11;32.02;93058.13;5029662;28;20064;-39
2023/03/31 11:28:37;;;;;;;;;;;;;;;19.19;35.25;93059.38;5029540;28;20000;-39
2023/03/31 11:31:10;;;;;;;;;;;;;;;18.93;34.97;93038.31;5028985;28;20393;-39
2023/03/31 11:34:05;;;;;;;;;;;;;;;18.85;35.63;93043.44;5034541;28;19954;-39
2023/03/31 11:36:36;;;;;;;;;;;;;;;19.48;34.78;93048.44;5052328;28;20315;-39
2023/03/31 11:39:02;;;;;;;;;;;;;;;20.19;33.34;93035.38;5053104;28;19920;-39
2023/03/31 11:41:35;;;;;;;;;;;;;;;20.89;33.26;93036.19;5043444;28;19920;-39
2023/03/31 11:44:13;;;;;;;;;;;;;;;21.43;32.29;93028.97;5048370;28;19917;-39
2023/03/31 11:46:39;;;;;;;;;;;;;;;22.03;30.19;93031.81;5048339;28;20016;-39
2023/03/31 11:49:05;;;;;;;;;;;;;;;21.89;32.49;93028.38;5032732;28;20012;-39
2023/03/31 11:51:40;;;;;;;;;;;;;;;21.92;31.33;93035.50;5048074;28;20457;-39
2023/03/31 11:54:10;;;;;;;;;;;;;;;21.51;30.69;93021.66;5032667;28;20407;-39
2023/03/31 11:56:36;;;;;;;;;;;;;;;20.92;32.04;93028.63;5032910;28;19917;-39
2023/03/31 11:59:02;;;;;;;;;;;;;;;20.40;33.06;93021.06;5032934;28;19943;-39
2023/03/31 12:01:31;;;;;;;;;;;;;;;20.19;33.18;93019.31;5047836;28;20015;-39
2023/03/31 12:03:59;;;;;;;;;;;;;;;20.21;33.47;93019.44;5032380;28;20381;-39
2023/03/31 12:06:27;;;;;;;;;;;;;;;19.38;35.35;93027.56;5032483;28;19917;-39
2023/03/31 12:08:52;;;;;;;;;;;;;;;19.29;34.14;93017.97;5046960;28;19914;-39
2023/03/31 12:11:23;;;;;;;;;;;;;;;18.97;35.85;93010.59;5031727;28;19920;-39
2023/03/31 12:13:55;;;;;;;;;;;;;;;18.73;35.89;92998.03;5047147;28;20378;-38
2023/03/31 12:16:21;;;;;;;;;;;;;;;18.59;35.44;92997.94;5046918;28;19914;-39
2023/03/31 12:19:07;;;;;;;;;;;;;;;18.65;35.45;92984.28;5031684;28;19920;-39
2023/03/31 12:21:32;;;;;;;;;;;;;;;18.30;36.52;92988.50;5027313;28;19920;-39
2023/03/31 12:23:58;;;;;;;;;;;;;;;18.60;35.57;92982.59;5031280;28;19917;-39
2023/03/31 12:26:41;;;;;;;;;;;;;;;18.38;35.86;92975.00;5031326;28;19966;-39
2023/03/31 12:29:20;;;;;;;;;;;;;;;18.85;35.86;92970.72;5011384;28;19920;-39
2023/03/31 12:31:45;;;;;;;;;;;;;;;19.14;35.83;92981.41;5051865;28;19966;-39
2023/03/31 12:34:11;;;;;;;;;;;;;;;19.05;35.24;92971.84;5040889;28;19913;-39
2023/03/31 12:36:44;;;;;;;;;;;;;;;19.25;34.48;92964.53;5066269;28;19919;-39
2023/03/31 12:39:18;;;;;;;;;;;;;;;19.41;33.93;92962.66;5031067;28;19917;-39
2023/03/31 12:41:46;;;;;;;;;;;;;;;19.21;33.88;92967.13;5031216;28;19970;-39
2023/03/31 12:44:22;;;;;;;;;;;;;;;18.94;34.96;92961.44;5030674;28;19917;-39
2023/03/31 12:47:00;;;;;;;;;;;;;;;18.83;35.88;92965.03;5045233;28;19916;-39
2023/03/31 12:49:44;;;;;;;;;;;;;;;18.63;35.78;92961.81;5045909;28;19925;-39
2023/03/31 12:52:36;;;;;;;;;;;;;;;19.35;34.09;92948.34;5030714;28;19999;-39
2023/03/31 12:55:15;;;;;;;;;;;;;;;18.73;35.65;92961.66;5022002;28;20439;-39
2023/03/31 12:57:41;;;;;;;;;;;;;;;18.98;34.58;92961.66;5046172;28;19971;-39
2023/03/31 13:00:10;;;;;;;;;;;;;;;18.98;34.97;92947.69;5030623;28;19913;-39
2023/03/31 13:02:39;;;;;;;;;;;;;;;19.18;34.66;92948.78;5030785;28;19940;-39
2023/03/31 13:05:23;;;;;;;;;;;;;;;19.26;33.63;92937.28;5046054;28;19972;-39